Time;durP1;ratioP1;P1;durP2;ratioP2;P2;SDS_P1;SDS_P2;PMS_P1;PMS_P2;Temp;Humidity;BMP_temperature;BMP_pressure;BME280_temperature;BME280_humidity;BME280_pressure;Samples;Min_cycle;Max_cycle;Signal;HPM_P1;HPM_P2
2020/12/14 00:01:16;;;;;;;38.65;24.10;;;;;;;8.41;100.00;100862.41;5000474;28;20103;-65
2020/12/14 00:04:01;;;;;;;34.67;22.58;;;;;;;8.48;100.00;100861.50;5014455;28;20088;-66
2020/12/14 00:06:50;;;;;;;34.33;22.70;;;;;;;8.29;100.00;100872.97;5013811;28;20042;-66
2020/12/14 00:09:36;;;;;;;35.10;22.50;;;;;;;7.79;100.00;100879.22;5014357;28;20124;-66
2020/12/14 00:12:21;;;;;;;36.90;24.60;;;;;;;8.59;100.00;100883.19;5014028;28;20125;-66
2020/12/14 00:15:07;;;;;;;42.30;26.58;;;;;;;8.43;100.00;100886.78;5014595;28;20056;-67
2020/12/14 00:17:52;;;;;;;41.45;25.58;;;;;;;7.72;100.00;100893.19;5014219;28;20041;-66
2020/12/14 00:20:37;;;;;;;48.97;30.55;;;;;;;7.09;100.00;100899.38;5014090;28;20056;-67
2020/12/14 00:23:23;;;;;;;49.53;31.85;;;;;;;7.78;100.00;100904.47;5013845;28;20065;-66
2020/12/14 00:26:08;;;;;;;60.40;38.45;;;;;;;7.76;100.00;100915.78;5013955;28;20442;-66
2020/12/14 00:28:54;;;;;;;62.33;40.80;;;;;;;7.93;100.00;100921.78;5000227;28;20413;-66
2020/12/14 00:31:40;;;;;;;59.58;39.20;;;;;;;8.23;100.00;100919.97;5014251;28;20034;-66
2020/12/14 00:34:25;;;;;;;55.40;37.15;;;;;;;8.34;100.00;100915.56;5000669;28;20421;-67
2020/12/14 00:37:11;;;;;;;46.00;28.55;;;;;;;7.99;100.00;100912.19;5000474;28;20447;-66
2020/12/14 00:39:56;;;;;;;44.83;28.48;;;;;;;8.14;100.00;100913.88;5014357;28;20041;-65
2020/12/14 00:42:45;;;;;;;44.30;28.85;;;;;;;8.12;100.00;100903.44;5013929;28;20454;-66
2020/12/14 00:45:30;;;;;;;44.88;28.52;;;;;;;8.19;100.00;100905.16;5013971;28;20485;-66
2020/12/14 00:48:15;;;;;;;43.78;27.48;;;;;;;8.46;100.00;100909.38;5000746;28;20041;-67
2020/12/14 00:51:01;;;;;;;38.72;25.15;;;;;;;8.67;100.00;100912.72;5013739;28;20076;-66
2020/12/14 00:53:46;;;;;;;34.17;22.83;;;;;;;8.66;100.00;100907.53;5000368;28;20056;-66
2020/12/14 00:56:32;;;;;;;36.78;22.90;;;;;;;8.62;100.00;100908.41;5018194;28;20484;-66
2020/12/14 00:59:17;;;;;;;35.55;23.55;;;;;;;8.47;100.00;100908.50;5033532;28;20033;-66
2020/12/14 01:02:03;;;;;;;36.70;23.92;;;;;;;8.33;100.00;100910.34;5047280;28;20131;-66
2020/12/14 01:04:49;;;;;;;42.90;25.10;;;;;;;7.90;100.00;100900.94;5047381;28;20125;-65
2020/12/14 01:07:34;;;;;;;40.00;25.90;;;;;;;7.75;100.00;100900.97;5047346;28;20071;-65
2020/12/14 01:10:20;;;;;;;37.63;24.35;;;;;;;7.89;100.00;100912.25;5047393;28;20032;-66
2020/12/14 01:13:05;;;;;;;42.83;27.35;;;;;;;8.25;100.00;100906.91;5046808;28;20493;-66
2020/12/14 01:15:50;;;;;;;40.22;25.40;;;;;;;7.98;100.00;100912.19;5046813;28;20040;-65
2020/12/14 01:18:37;;;;;;;38.42;24.77;;;;;;;8.00;100.00;100915.69;5047047;28;20029;-66
2020/12/14 01:21:23;;;;;;;39.28;24.85;;;;;;;8.59;100.00;100929.31;5019354;28;20064;-66
2020/12/14 01:24:09;;;;;;;38.75;25.85;;;;;;;8.14;100.00;100934.75;5047220;28;20115;-66
2020/12/14 01:26:54;;;;;;;38.83;24.20;;;;;;;8.25;100.00;100938.22;5019266;28;20033;-67
2020/12/14 01:29:42;;;;;;;40.22;25.20;;;;;;;8.47;100.00;100943.31;5046878;28;20035;-66
2020/12/14 01:32:28;;;;;;;40.63;25.73;;;;;;;8.41;100.00;100932.06;5033217;28;20091;-66
2020/12/14 01:35:13;;;;;;;34.95;23.45;;;;;;;8.18;100.00;100926.91;5019382;28;20045;-65
2020/12/14 01:37:59;;;;;;;38.78;25.08;;;;;;;8.37;100.00;100923.34;5032881;28;20065;-67
2020/12/14 01:40:44;;;;;;;37.50;24.50;;;;;;;8.08;100.00;100916.53;5046586;28;20029;-67
2020/12/14 01:43:30;;;;;;;37.20;25.02;;;;;;;8.28;100.00;100920.78;5032899;28;20583;-66
2020/12/14 01:46:27;;;;;;;38.10;25.50;;;;;;;8.41;100.00;100919.84;5032530;28;20041;-66
2020/12/14 01:49:13;;;;;;;39.47;26.13;;;;;;;8.31;100.00;100927.72;5019327;28;20048;-66
2020/12/14 01:51:58;;;;;;;36.28;24.52;;;;;;;7.91;100.00;100920.91;5018883;28;20040;-66
2020/12/14 01:54:46;;;;;;;41.83;27.63;;;;;;;7.80;100.00;100922.72;5032494;28;20112;-65
2020/12/14 01:57:31;;;;;;;37.78;26.35;;;;;;;7.96;100.00;100920.03;5032371;28;20057;-65
2020/12/14 02:00:16;;;;;;;38.95;25.52;;;;;;;7.75;100.00;100920.09;5032528;28;20372;-66
2020/12/14 02:03:03;;;;;;;40.88;26.05;;;;;;;7.84;100.00;100919.22;5032557;28;20453;-65
2020/12/14 02:05:48;;;;;;;37.25;25.52;;;;;;;7.72;100.00;100914.03;5032361;28;20362;-66
2020/12/14 02:08:34;;;;;;;40.80;27.33;;;;;;;7.12;100.00;100916.75;5019037;28;20127;-66
2020/12/14 02:11:19;;;;;;;43.15;28.48;;;;;;;7.33;100.00;100924.53;5032204;28;20171;-66
2020/12/14 02:14:04;;;;;;;43.15;29.08;;;;;;;7.29;100.00;100925.41;5032483;28;20048;-67
2020/12/14 02:16:50;;;;;;;46.58;31.05;;;;;;;7.77;100.00;100933.16;5018308;28;20442;-66
2020/12/14 02:19:35;;;;;;;51.08;33.67;;;;;;;7.41;100.00;100928.88;5032670;28;20457;-67
2020/12/14 02:22:26;;;;;;;51.95;35.22;;;;;;;7.35;100.00;100931.47;5032331;28;20064;-66
2020/12/14 02:25:11;;;;;;;44.33;31.23;;;;;;;8.06;100.00;100928.69;5018992;28;20037;-65
2020/12/14 02:27:57;;;;;;;47.30;33.40;;;;;;;8.34;100.00;100932.94;5032071;28;20033;-65
2020/12/14 02:30:42;;;;;;;48.80;33.70;;;;;;;7.96;100.00;100933.06;5019014;28;20094;-66
2020/12/14 02:33:27;;;;;;;52.80;35.60;;;;;;;8.17;100.00;100945.19;5036455;28;20036;-66
2020/12/14 02:36:13;;;;;;;45.70;32.50;;;;;;;8.25;100.00;100940.81;5036277;28;20044;-66
2020/12/14 02:38:58;;;;;;;60.92;38.75;;;;;;;8.12;100.00;100945.19;5036397;28;20044;-66
2020/12/14 02:41:44;;;;;;;46.53;32.35;;;;;;;8.01;100.00;100947.00;5035911;28;20029;-66
2020/12/14 02:44:29;;;;;;;57.40;38.00;;;;;;;7.90;100.00;100953.09;5036274;28;20037;-66
2020/12/14 02:47:15;;;;;;;52.92;33.92;;;;;;;8.20;100.00;100951.25;5035843;28;20426;-66
2020/12/14 02:50:01;;;;;;;51.33;34.08;;;;;;;7.46;100.00;100949.72;5022682;28;20029;-65
2020/12/14 02:52:46;;;;;;;51.22;33.90;;;;;;;7.84;100.00;100958.34;5035905;28;20041;-65
2020/12/14 02:55:32;;;;;;;45.80;31.95;;;;;;;8.23;100.00;100960.84;5036117;28;20056;-66
2020/12/14 02:58:17;;;;;;;51.88;34.70;;;;;;;8.25;100.00;100957.38;5035811;28;20059;-66
2020/12/14 03:01:03;;;;;;;43.65;29.80;;;;;;;8.02;100.00;100950.44;5035403;28;20071;-66
2020/12/14 03:03:48;;;;;;;46.55;30.75;;;;;;;8.06;100.00;100955.66;5036064;28;20032;-66
2020/12/14 03:06:34;;;;;;;44.28;28.90;;;;;;;7.80;100.00;100954.00;5049531;28;20102;-65
2020/12/14 03:09:21;;;;;;;43.35;28.13;;;;;;;8.13;100.00;100948.69;5022466;28;20029;-66
2020/12/14 03:12:06;;;;;;;40.65;27.50;;;;;;;8.27;100.00;100953.00;5021539;28;20366;-66
2020/12/14 03:14:52;;;;;;;39.50;26.27;;;;;;;8.35;100.00;100942.50;5021714;28;20095;-66
2020/12/14 03:17:38;;;;;;;43.25;27.65;;;;;;;7.98;100.00;100944.38;5035329;28;20038;-66
2020/12/14 03:20:23;;;;;;;39.25;26.17;;;;;;;8.17;100.00;100945.19;5049479;28;20037;-66
2020/12/14 03:23:09;;;;;;;39.05;25.23;;;;;;;8.09;100.00;100937.41;5049159;28;20053;-66
2020/12/14 03:25:54;;;;;;;37.45;23.35;;;;;;;7.74;100.00;100946.19;5049190;28;20068;-66
2020/12/14 03:28:39;;;;;;;40.05;24.30;;;;;;;8.06;100.00;100947.84;5021769;28;20373;-66
2020/12/14 03:31:25;;;;;;;36.47;24.17;;;;;;;7.90;100.00;100946.16;5048899;28;20033;-66
2020/12/14 03:34:10;;;;;;;39.15;24.58;;;;;;;7.93;100.00;100947.88;5035114;28;20029;-66
2020/12/14 03:36:59;;;;;;;39.97;24.23;;;;;;;7.91;100.00;100950.50;5048920;28;20044;-66
2020/12/14 03:39:44;;;;;;;36.03;21.95;;;;;;;8.01;100.00;100951.34;5035475;28;20060;-66
2020/12/14 03:42:30;;;;;;;32.97;20.27;;;;;;;7.96;100.00;100951.34;5048571;28;20465;-66
2020/12/14 03:45:15;;;;;;;32.03;20.48;;;;;;;7.71;100.00;100948.78;5021238;28;20536;-66
2020/12/14 03:48:00;;;;;;;30.52;19.85;;;;;;;8.06;100.00;100949.56;5021092;28;20044;-66
2020/12/14 03:50:46;;;;;;;31.65;19.48;;;;;;;7.79;100.00;100949.63;5048601;28;20087;-66
2020/12/14 03:53:31;;;;;;;32.05;19.92;;;;;;;7.55;100.00;100945.34;5048802;28;20030;-65
2020/12/14 03:56:24;;;;;;;31.45;20.17;;;;;;;7.28;100.00;100955.81;5020637;28;20417;-65
2020/12/14 03:59:09;;;;;;;33.90;19.75;;;;;;;8.02;100.00;100951.34;5034964;28;20116;-66
2020/12/14 04:01:55;;;;;;;32.85;19.92;;;;;;;8.20;100.00;100955.63;5020781;28;20037;-66
2020/12/14 04:04:41;;;;;;;36.47;21.98;;;;;;;8.23;100.00;100955.63;5021022;28;20107;-66
2020/12/14 04:07:27;;;;;;;34.10;20.35;;;;;;;8.11;100.00;100960.84;5034548;28;20038;-66
2020/12/14 04:10:12;;;;;;;33.75;19.88;;;;;;;7.59;100.00;100959.28;5034839;28;20025;-65
2020/12/14 04:12:57;;;;;;;33.88;20.33;;;;;;;7.82;100.00;100967.91;5034204;28;20034;-65
2020/12/14 04:15:43;;;;;;;32.92;20.75;;;;;;;7.96;100.00;100973.97;5034603;28;20117;-65
2020/12/14 04:18:29;;;;;;;33.72;20.27;;;;;;;7.96;100.00;100979.19;5020885;28;20047;-65
2020/12/14 04:21:17;;;;;;;33.63;20.77;;;;;;;7.95;100.00;100975.69;5034308;28;20047;-66
2020/12/14 04:24:03;;;;;;;30.42;19.23;;;;;;;7.74;100.00;100980.97;5034568;28;20096;-65
2020/12/14 04:26:53;;;;;;;33.92;20.45;;;;;;;7.77;100.00;100985.31;5033707;28;20465;-65
2020/12/14 04:29:38;;;;;;;34.50;20.85;;;;;;;8.08;100.00;100985.22;5034294;28;20060;-66
2020/12/14 04:32:23;;;;;;;37.60;20.25;;;;;;;8.14;100.00;100984.31;5034020;28;20107;-65
2020/12/14 04:35:10;;;;;;;38.25;21.75;;;;;;;8.02;100.00;100992.19;5033913;28;20034;-66
2020/12/14 04:37:55;;;;;;;35.83;19.60;;;;;;;8.15;100.00;100999.09;5034103;28;20037;-66
2020/12/14 04:40:40;;;;;;;36.92;21.45;;;;;;;7.94;100.00;100992.22;5033946;28;20048;-66
2020/12/14 04:43:26;;;;;;;40.90;21.90;;;;;;;7.96;100.00;101002.66;5034071;28;20037;-65
2020/12/14 04:46:12;;;;;;;38.75;21.73;;;;;;;8.25;100.00;101013.91;5034210;28;20104;-65
2020/12/14 04:48:58;;;;;;;42.05;23.08;;;;;;;7.66;100.00;101007.91;5034008;28;20037;-65
2020/12/14 04:51:43;;;;;;;38.20;21.35;;;;;;;7.85;100.00;101009.63;5033586;28;20055;-66
2020/12/14 04:54:30;;;;;;;39.63;21.15;;;;;;;7.38;100.00;101012.28;5033170;28;20029;-66
2020/12/14 04:57:20;;;;;;;41.30;22.25;;;;;;;7.71;100.00;101021.81;5019618;28;20055;-65
2020/12/14 05:00:07;;;;;;;38.95;22.58;;;;;;;7.85;100.00;101022.69;5020063;28;20080;-66
2020/12/14 05:02:56;;;;;;;41.33;22.17;;;;;;;7.67;100.00;101015.75;5047349;28;20044;-65
2020/12/14 05:05:42;;;;;;;41.35;22.73;;;;;;;8.18;100.00;101022.59;5047334;28;20029;-66
2020/12/14 05:08:31;;;;;;;43.90;22.60;;;;;;;7.73;100.00;101027.91;5047570;28;20124;-66
2020/12/14 05:11:33;;;;;;;44.30;24.77;;;;;;;8.20;100.00;101026.09;5047386;28;20072;-66
2020/12/14 05:14:21;;;;;;;44.70;23.05;;;;;;;7.85;100.00;101025.28;5047550;28;20049;-66
2020/12/14 05:17:20;;;;;;;47.30;24.52;;;;;;;7.77;100.00;101029.63;5019876;28;20041;-66
2020/12/14 05:20:13;;;;;;;46.85;24.55;;;;;;;7.70;100.00;101030.50;5046743;28;20048;-66
2020/12/14 05:23:00;;;;;;;46.38;23.60;;;;;;;7.93;100.00;101032.25;5033071;28;20114;-66
2020/12/14 05:25:46;;;;;;;41.13;22.75;;;;;;;7.62;100.00;101038.34;5033486;28;20335;-66
2020/12/14 05:28:31;;;;;;;38.70;22.02;;;;;;;7.97;100.00;101031.38;5047161;28;20484;-66
2020/12/14 05:31:18;;;;;;;44.53;22.92;;;;;;;8.35;100.00;101037.38;5047140;28;20033;-66
2020/12/14 05:34:09;;;;;;;35.80;21.13;;;;;;;7.85;100.00;101047.03;5019586;28;20369;-66
2020/12/14 05:36:56;;;;;;;39.85;22.48;;;;;;;7.92;100.00;101042.66;5047380;28;20029;-67
2020/12/14 05:39:44;;;;;;;40.28;23.67;;;;;;;7.90;100.00;101047.00;5047727;28;20033;-66
2020/12/14 05:42:42;;;;;;;43.03;22.67;;;;;;;7.93;100.00;101055.72;5047266;28;20453;-65
2020/12/14 05:45:27;;;;;;;43.72;22.90;;;;;;;8.00;100.00;101061.78;5047547;28;20113;-66
2020/12/14 05:48:30;;;;;;;38.42;21.30;;;;;;;7.81;100.00;101067.88;5033458;28;20029;-66
2020/12/14 05:51:15;;;;;;;40.83;22.80;;;;;;;7.88;100.00;101070.47;5047240;28;20041;-66
2020/12/14 05:54:04;;;;;;;38.05;21.40;;;;;;;8.09;100.00;101074.81;5019447;28;20026;-65
2020/12/14 05:56:53;;;;;;;39.78;22.20;;;;;;;8.09;100.00;101077.41;5019256;28;20029;-65
2020/12/14 05:59:41;;;;;;;39.67;22.80;;;;;;;8.09;100.00;101087.84;5033740;28;20127;-66
2020/12/14 06:02:27;;;;;;;44.30;25.02;;;;;;;7.92;100.00;101081.81;5019834;28;20036;-66
2020/12/14 06:05:12;;;;;;;38.00;21.85;;;;;;;8.09;100.00;101087.84;5032673;28;20434;-66
2020/12/14 06:08:01;;;;;;;40.45;23.23;;;;;;;8.08;100.00;101086.97;5032753;28;20052;-65
2020/12/14 06:10:50;;;;;;;45.63;24.48;;;;;;;8.10;100.00;101090.47;5032119;28;20055;-65
2020/12/14 06:13:48;;;;;;;40.53;22.35;;;;;;;8.10;100.00;101084.38;5032527;28;20131;-65
2020/12/14 06:16:39;;;;;;;40.70;23.50;;;;;;;8.04;100.00;101098.28;5032525;28;20385;-66
2020/12/14 06:19:24;;;;;;;39.50;22.85;;;;;;;8.18;100.00;101098.28;5032822;28;20077;-65
2020/12/14 06:22:11;;;;;;;46.65;25.70;;;;;;;8.24;100.00;101099.16;5031983;28;20046;-66
2020/12/14 06:25:03;;;;;;;50.05;26.63;;;;;;;8.40;100.00;101105.25;5032417;28;20354;-66
2020/12/14 06:27:48;;;;;;;50.50;26.30;;;;;;;8.26;100.00;101097.44;5031917;28;20045;-65
2020/12/14 06:30:34;;;;;;;50.60;27.27;;;;;;;8.14;100.00;101101.75;5032326;28;20171;-66
2020/12/14 06:33:37;;;;;;;53.30;25.98;;;;;;;8.16;100.00;101097.44;5032008;28;20473;-65
2020/12/14 06:36:25;;;;;;;53.35;27.15;;;;;;;8.21;100.00;101093.97;5031973;28;20041;-66
2020/12/14 06:39:27;;;;;;;46.30;25.30;;;;;;;8.33;100.00;101104.34;5032338;28;20120;-66
2020/12/14 06:42:13;;;;;;;47.33;25.33;;;;;;;8.68;100.00;101112.97;5031883;28;20048;-66
2020/12/14 06:45:01;;;;;;;54.30;28.30;;;;;;;8.20;100.00;101107.84;5032155;28;20037;-66
2020/12/14 06:47:50;;;;;;;58.03;28.98;;;;;;;8.07;100.00;101113.94;5031998;28;20148;-66
2020/12/14 06:50:38;;;;;;;48.17;26.15;;;;;;;7.95;100.00;101120.91;5032117;28;20033;-66
2020/12/14 06:53:38;;;;;;;47.72;27.15;;;;;;;8.27;100.00;101119.16;5031946;28;20037;-66
2020/12/14 06:56:26;;;;;;;47.15;26.85;;;;;;;8.15;100.00;101130.47;5031729;28;20075;-65
2020/12/14 06:59:28;;;;;;;47.22;26.00;;;;;;;8.26;100.00;101138.31;5046212;28;20033;-66
2020/12/14 07:02:14;;;;;;;45.08;26.00;;;;;;;8.24;100.00;101142.69;5045348;28;20411;-66
2020/12/14 07:05:00;;;;;;;50.60;27.40;;;;;;;8.10;100.00;101142.66;5031988;28;20465;-66
2020/12/14 07:07:52;;;;;;;45.22;25.60;;;;;;;8.22;100.00;101144.41;5018148;28;20112;-68
2020/12/14 07:10:38;;;;;;;48.70;26.48;;;;;;;8.30;100.00;101151.38;5045716;28;20090;-66
2020/12/14 07:13:33;;;;;;;52.33;27.88;;;;;;;7.59;100.00;101147.00;5032022;28;20037;-66
2020/12/14 07:16:26;;;;;;;56.25;29.42;;;;;;;8.05;100.00;101147.03;5045393;28;20053;-65
2020/12/14 07:19:12;;;;;;;52.45;27.00;;;;;;;7.97;100.00;101153.97;5021256;28;20030;-66
2020/12/14 07:21:58;;;;;;;51.42;27.58;;;;;;;7.71;100.00;101162.63;5048447;28;20410;-67
2020/12/14 07:24:43;;;;;;;50.22;27.55;;;;;;;8.22;100.00;101165.28;5048995;28;20033;-67
2020/12/14 07:27:31;;;;;;;54.67;28.83;;;;;;;7.74;100.00;101158.31;5020993;28;20134;-67
2020/12/14 07:30:19;;;;;;;53.63;28.10;;;;;;;7.60;100.00;101164.38;5021278;28;20036;-66
2020/12/14 07:33:05;;;;;;;51.67;27.92;;;;;;;7.43;100.00;101164.34;5035033;28;20041;-66
2020/12/14 07:36:01;;;;;;;50.00;28.33;;;;;;;7.73;100.00;101174.84;5048699;28;20033;-65
2020/12/14 07:38:49;;;;;;;54.92;28.55;;;;;;;8.05;100.00;101180.06;5048759;28;20117;-66
2020/12/14 07:41:34;;;;;;;48.55;27.00;;;;;;;8.13;100.00;101184.44;5034635;28;20497;-65
2020/12/14 07:44:20;;;;;;;95.25;54.97;;;;;;;8.38;100.00;101180.94;5034899;28;20417;-67
2020/12/14 07:47:18;;;;;;;52.53;30.33;;;;;;;8.54;100.00;101187.88;5048559;28;20111;-67
2020/12/14 07:50:22;;;;;;;51.15;27.45;;;;;;;8.52;100.00;101183.53;5048976;28;20053;-67
2020/12/14 07:53:08;;;;;;;48.33;27.55;;;;;;;8.54;100.00;101192.22;5034397;28;20063;-67
2020/12/14 07:56:01;;;;;;;49.65;29.00;;;;;;;8.68;100.00;101196.56;5034609;28;20153;-65
2020/12/14 07:58:49;;;;;;;48.33;26.95;;;;;;;8.77;100.00;101200.91;5001247;28;20115;-66
2020/12/14 08:01:34;;;;;;;51.20;29.60;;;;;;;8.69;100.00;101200.03;5000797;28;20033;-66
2020/12/14 08:04:32;;;;;;;61.45;32.03;;;;;;;8.46;100.00;101205.31;5014776;28;20038;-66
2020/12/14 08:07:20;;;;;;;52.78;30.58;;;;;;;8.63;100.00;101213.97;5000764;28;20038;-66
2020/12/14 08:10:07;;;;;;;57.40;31.60;;;;;;;8.55;100.00;101209.63;5014601;28;20041;-66
2020/12/14 08:12:53;;;;;;;52.17;28.67;;;;;;;8.73;100.00;101209.63;5001003;28;20040;-66
2020/12/14 08:15:40;;;;;;;54.53;30.52;;;;;;;8.86;100.00;101217.41;5014381;28;20042;-66
2020/12/14 08:18:25;;;;;;;51.72;30.38;;;;;;;8.29;100.00;101227.94;5014479;28;20030;-66
2020/12/14 08:21:22;;;;;;;49.22;27.83;;;;;;;8.48;100.00;101234.03;5014162;28;20057;-65
2020/12/14 08:24:11;;;;;;;56.92;28.65;;;;;;;8.61;100.00;101225.31;5000601;28;20531;-66
2020/12/14 08:27:01;;;;;;;45.80;25.80;;;;;;;8.62;100.00;101222.69;5013717;28;20056;-67
2020/12/14 08:30:04;;;;;;;52.85;27.10;;;;;;;8.93;100.00;101229.56;5013404;28;20034;-66
2020/12/14 08:33:25;;;;;;;45.88;25.83;;;;;;;8.79;100.00;101217.41;5014030;28;20120;-67
2020/12/14 08:36:11;;;;;;;45.45;24.92;;;;;;;9.04;100.00;101222.56;4960212;28;20038;-65
2020/12/14 08:38:56;;;;;;;49.50;27.55;;;;;;;8.99;100.00;101213.00;5013994;28;20052;-66
2020/12/14 08:41:41;;;;;;;55.08;30.70;;;;;;;8.70;100.00;101209.63;5013599;28;20034;-66
2020/12/14 08:44:27;;;;;;;54.03;30.52;;;;;;;8.60;100.00;101213.97;5013980;28;20186;-65
2020/12/14 08:47:14;;;;;;;54.80;31.15;;;;;;;9.05;100.00;101208.63;5013803;28;20026;-67
2020/12/14 08:50:00;;;;;;;54.42;31.20;;;;;;;8.88;100.00;101204.34;5013881;28;20041;-65
2020/12/14 08:52:58;;;;;;;57.08;32.55;;;;;;;9.06;100.00;101205.16;5000216;28;20076;-66
2020/12/14 08:55:43;;;;;;;50.88;30.08;;;;;;;9.42;100.00;101206.75;5013006;28;20564;-65
2020/12/14 08:58:29;;;;;;;50.53;29.23;;;;;;;9.59;100.00;101204.91;5013811;28;20068;-66
2020/12/14 09:01:15;;;;;;;49.45;28.20;;;;;;;9.77;100.00;101210.03;4999691;28;20052;-66
2020/12/14 09:04:02;;;;;;;45.92;27.50;;;;;;;9.60;100.00;101209.25;5000168;28;20512;-66
2020/12/14 09:06:48;;;;;;;49.65;29.15;;;;;;;9.67;100.00;101201.38;5013406;28;20041;-66
2020/12/14 09:09:35;;;;;;;49.00;28.80;;;;;;;9.43;100.00;101209.34;5013799;28;20310;-66
2020/12/14 09:12:21;;;;;;;49.72;30.13;;;;;;;9.18;100.00;101204.22;5013274;28;20038;-67
2020/12/14 09:15:06;;;;;;;50.03;29.20;;;;;;;9.34;100.00;101205.91;5013074;28;20037;-66
2020/12/14 09:18:07;;;;;;;55.97;31.40;;;;;;;9.21;100.00;101206.84;5013349;28;20033;-66
2020/12/14 09:21:03;;;;;;;51.60;30.77;;;;;;;9.13;100.00;101214.69;5013134;28;20353;-66
2020/12/14 09:24:18;;;;;;;52.13;30.65;;;;;;;8.97;100.00;101214.78;5012960;28;20144;-66
2020/12/14 09:27:06;;;;;;;52.00;29.42;;;;;;;9.22;100.00;101212.06;5012882;28;20037;-66
2020/12/14 09:29:52;;;;;;;57.25;30.90;;;;;;;9.26;100.00;101212.91;5013180;28;20041;-66
2020/12/14 09:32:37;;;;;;;54.72;32.67;;;;;;;8.74;100.00;101216.56;5012844;28;20030;-67
2020/12/14 09:35:23;;;;;;;56.45;32.25;;;;;;;9.11;100.00;101219.06;5013300;28;20446;-67
2020/12/14 09:38:08;;;;;;;63.10;34.97;;;;;;;9.17;100.00;101220.81;5013023;28;20025;-67
2020/12/14 09:40:54;;;;;;;54.85;31.60;;;;;;;8.48;100.00;101211.38;5012433;28;20041;-66
2020/12/14 09:43:43;;;;;;;64.57;35.33;;;;;;;8.84;100.00;101213.94;5013001;28;20034;-66
2020/12/14 09:46:32;;;;;;;59.80;33.50;;;;;;;8.72;100.00;101215.72;5012785;28;20037;-66
2020/12/14 09:49:27;;;;;;;54.30;32.25;;;;;;;9.05;100.00;101219.09;4999326;28;20033;-67
2020/12/14 09:52:12;;;;;;;64.45;31.58;;;;;;;8.42;100.00;101214.03;5012945;28;20030;-66
2020/12/14 09:54:57;;;;;;;53.72;31.25;;;;;;;8.35;100.00;101227.06;4998578;28;20034;-67
2020/12/14 09:57:43;;;;;;;51.20;29.40;;;;;;;8.31;100.00;101233.16;5026775;28;20462;-66
2020/12/14 10:00:28;;;;;;;57.10;32.00;;;;;;;7.77;100.00;101233.97;5032019;28;20446;-67
2020/12/14 10:03:14;;;;;;;51.90;30.23;;;;;;;8.19;100.00;101235.72;5018861;28;20461;-70
2020/12/14 10:05:59;;;;;;;55.28;30.58;;;;;;;8.28;100.00;101238.38;5032060;28;20037;-66
2020/12/14 10:08:45;;;;;;;51.80;28.95;;;;;;;8.64;100.00;101240.97;5032394;28;20037;-66
2020/12/14 10:11:33;;;;;;;50.30;27.95;;;;;;;8.97;100.00;101235.69;5031712;28;20040;-67
2020/12/14 10:14:19;;;;;;;51.58;28.92;;;;;;;8.88;100.00;101226.09;5032237;28;20377;-66
2020/12/14 10:17:04;;;;;;;45.40;28.63;;;;;;;8.70;100.00;101226.16;5031845;28;20037;-67
2020/12/14 10:19:50;;;;;;;46.38;28.10;;;;;;;8.93;100.00;101219.13;5032346;28;20501;-67
2020/12/14 10:22:36;;;;;;;52.20;30.08;;;;;;;9.09;100.00;101225.19;5031875;28;20065;-67
2020/12/14 10:25:24;;;;;;;50.92;28.85;;;;;;;8.51;100.00;101221.84;5031898;28;20025;-67
2020/12/14 10:28:09;;;;;;;51.97;29.52;;;;;;;8.29;100.00;101224.47;5018300;28;20132;-67
2020/12/14 10:30:55;;;;;;;43.35;25.40;;;;;;;8.47;100.00;101220.09;5018031;28;20106;-66
2020/12/14 10:33:47;;;;;;;51.70;27.10;;;;;;;8.83;100.00;101206.97;5018327;28;20462;-66
2020/12/14 10:36:32;;;;;;;50.22;28.20;;;;;;;9.15;100.00;101210.34;5033389;28;20038;-65
2020/12/14 10:39:18;;;;;;;44.92;27.23;;;;;;;8.94;100.00;101205.22;5032315;28;20034;-64
2020/12/14 10:42:03;;;;;;;48.38;27.70;;;;;;;8.77;100.00;101206.13;5017972;28;20029;-66
2020/12/14 10:44:48;;;;;;;46.25;26.17;;;;;;;8.83;100.00;101201.75;5032035;28;20461;-66
2020/12/14 10:47:34;;;;;;;47.88;26.98;;;;;;;8.81;100.00;101210.47;5031882;28;20334;-66
2020/12/14 10:50:19;;;;;;;52.15;27.80;;;;;;;8.72;100.00;101208.72;5032178;28;20060;-66
2020/12/14 10:53:05;;;;;;;49.67;28.55;;;;;;;8.92;100.00;101227.00;5034888;28;20504;-65
2020/12/14 10:55:51;;;;;;;49.45;27.52;;;;;;;8.55;100.00;101223.56;5035752;28;20497;-66
2020/12/14 10:58:36;;;;;;;45.40;25.15;;;;;;;7.77;100.00;101223.53;5016008;28;20125;-65
2020/12/14 11:01:23;;;;;;;44.63;26.77;;;;;;;8.20;100.00;101233.13;5015655;28;20042;-66
2020/12/14 11:04:08;;;;;;;50.03;27.52;;;;;;;8.75;100.00;101231.38;5002307;28;20397;-67
2020/12/14 11:06:53;;;;;;;44.22;26.75;;;;;;;8.66;100.00;101223.53;5002200;28;20064;-67
2020/12/14 11:09:39;;;;;;;45.13;27.60;;;;;;;8.98;100.00;101225.22;5015952;28;20095;-66
2020/12/14 11:12:25;;;;;;;44.20;26.27;;;;;;;8.33;100.00;101228.81;5015406;28;20091;-66
2020/12/14 11:15:10;;;;;;;45.75;27.75;;;;;;;9.03;100.00;101225.19;5001869;28;20566;-65
2020/12/14 11:17:56;;;;;;;45.88;26.27;;;;;;;8.77;100.00;101220.03;5015413;28;20038;-65
2020/12/14 11:20:41;;;;;;;47.25;27.40;;;;;;;9.15;100.00;101218.19;5015406;28;20037;-66
2020/12/14 11:23:26;;;;;;;53.45;29.13;;;;;;;8.93;100.00;101218.28;5015117;28;20466;-66
2020/12/14 11:26:12;;;;;;;49.65;28.83;;;;;;;9.21;100.00;101222.53;5015219;28;20046;-66
2020/12/14 11:28:57;;;;;;;53.85;31.60;;;;;;;8.94;100.00;101226.09;5015363;28;20034;-66
2020/12/14 11:31:43;;;;;;;55.88;31.55;;;;;;;8.84;100.00;101221.75;5001249;28;20465;-66
2020/12/14 11:34:28;;;;;;;56.78;30.73;;;;;;;9.21;100.00;101225.16;5015301;28;20378;-65
2020/12/14 11:37:14;;;;;;;51.55;29.30;;;;;;;9.41;100.00;101225.94;5015150;28;20026;-66
2020/12/14 11:39:59;;;;;;;49.55;28.48;;;;;;;9.38;100.00;101229.44;5015299;28;20044;-66
2020/12/14 11:42:44;;;;;;;44.67;27.00;;;;;;;9.26;100.00;101223.38;5014862;28;20165;-66
2020/12/14 11:45:30;;;;;;;50.15;27.80;;;;;;;9.02;100.00;101226.06;5015247;28;20450;-66
2020/12/14 11:48:15;;;;;;;43.65;25.52;;;;;;;8.74;100.00;101222.69;5015030;28;20450;-66
2020/12/14 11:51:01;;;;;;;47.97;27.42;;;;;;;8.76;100.00;101227.91;5014878;28;20034;-66
2020/12/14 11:53:47;;;;;;;48.50;27.85;;;;;;;8.94;100.00;101220.88;5014825;28;20049;-66
2020/12/14 11:56:33;;;;;;;45.53;26.65;;;;;;;8.40;100.00;101231.41;5019274;28;20059;-66
2020/12/14 11:59:18;;;;;;;46.60;28.08;;;;;;;8.75;100.00;101227.03;5034619;28;20028;-66
2020/12/14 12:02:03;;;;;;;51.65;29.50;;;;;;;8.78;100.00;101228.75;5034210;28;20056;-67
2020/12/14 12:04:49;;;;;;;47.17;27.80;;;;;;;8.98;100.00;101226.97;5033662;28;20084;-66
2020/12/14 12:07:34;;;;;;;54.58;33.60;;;;;;;8.89;100.00;101232.22;5034086;28;20431;-65
2020/12/14 12:10:20;;;;;;;54.22;30.98;;;;;;;9.28;100.00;101235.56;5034538;28;20033;-66
2020/12/14 12:13:06;;;;;;;58.17;33.20;;;;;;;8.97;100.00;101233.06;5033838;28;20033;-66
2020/12/14 12:15:52;;;;;;;49.03;30.40;;;;;;;8.96;100.00;101237.41;5020497;28;20350;-66
2020/12/14 12:18:39;;;;;;;54.88;31.70;;;;;;;9.09;100.00;101240.88;5034473;28;20033;-67
2020/12/14 12:21:28;;;;;;;61.80;33.90;;;;;;;8.73;100.00;101240.97;5020331;28;20044;-66
2020/12/14 12:24:15;;;;;;;51.10;30.80;;;;;;;8.93;100.00;101244.41;5033922;28;20053;-66
2020/12/14 12:27:01;;;;;;;59.72;36.20;;;;;;;8.79;100.00;101252.25;5033934;28;20029;-66
2020/12/14 12:29:46;;;;;;;57.25;35.03;;;;;;;9.24;100.00;101248.63;5034151;28;20041;-66
2020/12/14 12:32:32;;;;;;;67.32;40.10;;;;;;;8.19;100.00;101259.22;5033836;28;20327;-65
2020/12/14 12:35:17;;;;;;;69.85;41.67;;;;;;;8.41;100.00;101259.25;5019910;28;20052;-66
2020/12/14 12:38:03;;;;;;;76.45;44.97;;;;;;;8.72;100.00;101260.13;5033529;28;20429;-66
2020/12/14 12:40:48;;;;;;;67.65;41.13;;;;;;;8.91;100.00;101265.31;5033736;28;20397;-67